sensor_id;sensor_type;location;lat;lon;timestamp;pressure;altitude;pressure_sealevel;temperature;humidity
15382;BME280;7789;51.364;12.358;2023-01-05T00:03:42;99806.09;;;13.42;85.92
15382;BME280;7789;51.364;12.358;2023-01-05T00:08:47;99806.09;;;13.42;85.19
15382;BME280;7789;51.364;12.358;2023-01-05T00:13:51;99816.59;;;13.42;84.61
15382;BME280;7789;51.364;12.358;2023-01-05T00:19:11;99794.91;;;13.40;84.53
15382;BME280;7789;51.364;12.358;2023-01-05T00:24:34;99806.09;;;13.42;84.92
15382;BME280;7789;51.364;12.358;2023-01-05T00:29:37;99820.19;;;13.41;85.39
15382;BME280;7789;51.364;12.358;2023-01-05T00:34:40;99809.69;;;13.41;85.65
15382;BME280;7789;51.364;12.358;2023-01-05T00:39:45;99810.47;;;13.33;87.65
15382;BME280;7789;51.364;12.358;2023-01-05T00:44:48;99812.69;;;13.20;88.23
15382;BME280;7789;51.364;12.358;2023-01-05T00:49:51;99805.28;;;13.16;88.49
15382;BME280;7789;51.364;12.358;2023-01-05T00:54:56;99809.66;;;13.07;88.91
15382;BME280;7789;51.364;12.358;2023-01-05T00:59:59;99819.28;;;12.99;89.18
15382;BME280;7789;51.364;12.358;2023-01-05T01:05:04;99815.59;;;12.92;89.56
15382;BME280;7789;51.364;12.358;2023-01-05T01:10:11;99829.56;;;12.93;89.81
15382;BME280;7789;51.364;12.358;2023-01-05T01:15:14;99819.91;;;12.93;90.07
15382;BME280;7789;51.364;12.358;2023-01-05T01:20:18;99803.78;;;12.88;89.90
15382;BME280;7789;51.364;12.358;2023-01-05T01:25:22;99811.91;;;12.85;89.63
15382;BME280;7789;51.364;12.358;2023-01-05T01:30:25;99806.53;;;12.87;89.47
15382;BME280;7789;51.364;12.358;2023-01-05T01:35:28;99828.81;;;12.83;89.22
15382;BME280;7789;51.364;12.358;2023-01-05T01:40:37;99827.31;;;12.80;89.00
15382;BME280;7789;51.364;12.358;2023-01-05T01:45:40;99832.19;;;12.75;89.76
15382;BME280;7789;51.364;12.358;2023-01-05T01:50:46;99837.13;;;12.78;90.08
15382;BME280;7789;51.364;12.358;2023-01-05T01:55:52;99829.88;;;12.72;90.78
15382;BME280;7789;51.364;12.358;2023-01-05T02:00:56;99834.59;;;12.69;92.10
15382;BME280;7789;51.364;12.358;2023-01-05T02:06:03;99826.19;;;12.65;93.15
15382;BME280;7789;51.364;12.358;2023-01-05T02:11:32;99830.94;;;12.62;94.09
15382;BME280;7789;51.364;12.358;2023-01-05T02:16:48;99825.69;;;12.62;94.33
15382;BME280;7789;51.364;12.358;2023-01-05T02:22:01;99818.13;;;12.59;93.92
15382;BME280;7789;51.364;12.358;2023-01-05T02:27:28;99819.41;;;12.55;93.69
15382;BME280;7789;51.364;12.358;2023-01-05T02:32:38;99821.34;;;12.53;93.10
15382;BME280;7789;51.364;12.358;2023-01-05T02:37:52;99815.66;;;12.57;93.21
15382;BME280;7789;51.364;12.358;2023-01-05T02:42:59;99815.50;;;12.59;92.26
15382;BME280;7789;51.364;12.358;2023-01-05T02:48:05;99818.66;;;12.62;92.20
15382;BME280;7789;51.364;12.358;2023-01-05T02:53:13;99811.44;;;12.64;91.79
15382;BME280;7789;51.364;12.358;2023-01-05T02:58:23;99829.13;;;12.62;91.98
15382;BME280;7789;51.364;12.358;2023-01-05T03:03:33;99841.28;;;12.63;93.67
15382;BME280;7789;51.364;12.358;2023-01-05T03:08:47;99844.16;;;12.52;95.52
15382;BME280;7789;51.364;12.358;2023-01-05T03:13:55;99847.13;;;12.40;98.01
15382;BME280;7789;51.364;12.358;2023-01-05T03:19:02;99853.63;;;12.36;100.00
15382;BME280;7789;51.364;12.358;2023-01-05T03:24:24;99841.13;;;12.30;100.00
15382;BME280;7789;51.364;12.358;2023-01-05T03:29:45;99856.94;;;12.20;100.00
15382;BME280;7789;51.364;12.358;2023-01-05T03:35:10;99851.03;;;12.18;100.00
15382;BME280;7789;51.364;12.358;2023-01-05T03:40:34;99848.28;;;12.10;100.00
15382;BME280;7789;51.364;12.358;2023-01-05T03:45:41;99862.13;;;12.03;100.00
15382;BME280;7789;51.364;12.358;2023-01-05T03:50:47;99860.66;;;12.00;100.00
15382;BME280;7789;51.364;12.358;2023-01-05T03:55:50;99874.56;;;12.01;100.00
15382;BME280;7789;51.364;12.358;2023-01-05T04:00:53;99870.28;;;12.00;100.00
15382;BME280;7789;51.364;12.358;2023-01-05T04:05:59;99881.06;;;11.97;100.00
15382;BME280;7789;51.364;12.358;2023-01-05T04:11:13;99880.38;;;11.95;99.93
15382;BME280;7789;51.364;12.358;2023-01-05T04:16:16;99885.75;;;11.93;99.34
15382;BME280;7789;51.364;12.358;2023-01-05T04:21:21;99886.59;;;11.94;99.58
15382;BME280;7789;51.364;12.358;2023-01-05T04:26:24;99896.41;;;11.82;99.25
15382;BME280;7789;51.364;12.358;2023-01-05T04:31:27;99894.81;;;11.72;99.36
15382;BME280;7789;51.364;12.358;2023-01-05T04:36:32;99884.97;;;11.56;99.23
15382;BME280;7789;51.364;12.358;2023-01-05T04:41:36;99889.91;;;11.50;98.26
15382;BME280;7789;51.364;12.358;2023-01-05T04:46:39;99888.66;;;11.54;98.47
15382;BME280;7789;51.364;12.358;2023-01-05T04:51:44;99896.13;;;11.58;98.12
15382;BME280;7789;51.364;12.358;2023-01-05T04:56:47;99901.63;;;11.55;97.32
15382;BME280;7789;51.364;12.358;2023-01-05T05:01:50;99908.78;;;11.53;96.61
15382;BME280;7789;51.364;12.358;2023-01-05T05:06:55;99908.78;;;11.53;97.27
15382;BME280;7789;51.364;12.358;2023-01-05T05:11:58;99894.34;;;11.59;95.40
15382;BME280;7789;51.364;12.358;2023-01-05T05:17:02;99895.81;;;11.61;94.94
15382;BME280;7789;51.364;12.358;2023-01-05T05:22:06;99907.13;;;11.62;94.97
15382;BME280;7789;51.364;12.358;2023-01-05T05:27:10;99914.03;;;11.63;93.87
15382;BME280;7789;51.364;12.358;2023-01-05T05:32:13;99911.94;;;11.66;93.27
15382;BME280;7789;51.364;12.358;2023-01-05T05:37:17;99917.88;;;11.68;92.79
15382;BME280;7789;51.364;12.358;2023-01-05T05:42:21;99917.88;;;11.68;92.60
15382;BME280;7789;51.364;12.358;2023-01-05T05:47:24;99934.97;;;11.63;93.01
15382;BME280;7789;51.364;12.358;2023-01-05T05:52:29;99943.50;;;11.65;91.97
15382;BME280;7789;51.364;12.358;2023-01-05T05:57:32;99947.63;;;11.67;91.71
15382;BME280;7789;51.364;12.358;2023-01-05T06:02:35;99947.59;;;11.77;92.27
15382;BME280;7789;51.364;12.358;2023-01-05T06:07:40;99953.34;;;11.80;91.50
15382;BME280;7789;51.364;12.358;2023-01-05T06:12:43;99964.09;;;11.87;91.57
15382;BME280;7789;51.364;12.358;2023-01-05T06:17:47;99957.91;;;11.78;91.11
15382;BME280;7789;51.364;12.358;2023-01-05T06:22:51;99953.09;;;11.83;90.06
15382;BME280;7789;51.364;12.358;2023-01-05T06:27:54;99964.13;;;11.77;90.01
15382;BME280;7789;51.364;12.358;2023-01-05T06:32:58;99980.00;;;11.76;90.28
15382;BME280;7789;51.364;12.358;2023-01-05T06:38:02;99987.16;;;11.74;89.14
15382;BME280;7789;51.364;12.358;2023-01-05T06:43:06;99982.47;;;11.77;89.61
15382;BME280;7789;51.364;12.358;2023-01-05T06:48:09;99996.38;;;11.78;88.52
15382;BME280;7789;51.364;12.358;2023-01-05T06:53:14;99994.75;;;11.77;88.51
15382;BME280;7789;51.364;12.358;2023-01-05T06:58:17;100012.63;;;11.81;88.55
15382;BME280;7789;51.364;12.358;2023-01-05T07:03:20;100014.72;;;11.78;88.29
15382;BME280;7789;51.364;12.358;2023-01-05T07:08:26;100021.06;;;11.75;89.18
15382;BME280;7789;51.364;12.358;2023-01-05T07:13:29;100025.63;;;11.73;88.45
15382;BME280;7789;51.364;12.358;2023-01-05T07:18:33;100037.63;;;11.76;88.97
15382;BME280;7789;51.364;12.358;2023-01-05T07:23:37;100040.34;;;11.74;89.98
15382;BME280;7789;51.364;12.358;2023-01-05T07:28:41;100046.69;;;11.72;89.93
15382;BME280;7789;51.364;12.358;2023-01-05T07:33:44;100058.13;;;11.71;89.88
15382;BME280;7789;51.364;12.358;2023-01-05T07:38:49;100062.56;;;11.70;90.14
15382;BME280;7789;51.364;12.358;2023-01-05T07:44:00;100060.22;;;11.67;90.02
15382;BME280;7789;51.364;12.358;2023-01-05T07:49:03;100079.38;;;11.68;90.06
15382;BME280;7789;51.364;12.358;2023-01-05T07:54:08;100094.09;;;11.69;90.79
15382;BME280;7789;51.364;12.358;2023-01-05T07:59:11;100097.28;;;11.72;92.39
15382;BME280;7789;51.364;12.358;2023-01-05T08:04:14;100099.22;;;11.70;93.90
15382;BME280;7789;51.364;12.358;2023-01-05T08:09:19;100103.91;;;11.67;94.05
15382;BME280;7789;51.364;12.358;2023-01-05T08:14:40;100111.47;;;11.60;94.52
15382;BME280;7789;51.364;12.358;2023-01-05T08:19:43;100111.03;;;11.55;94.62
15382;BME280;7789;51.364;12.358;2023-01-05T08:24:48;100125.53;;;11.59;94.74
15382;BME280;7789;51.364;12.358;2023-01-05T08:29:53;100127.06;;;11.62;95.30
15382;BME280;7789;51.364;12.358;2023-01-05T08:34:56;100133.25;;;11.61;95.54
15382;BME280;7789;51.364;12.358;2023-01-05T08:40:01;100134.06;;;11.61;96.53
15382;BME280;7789;51.364;12.358;2023-01-05T08:45:05;100141.66;;;11.64;96.94
15382;BME280;7789;51.364;12.358;2023-01-05T08:50:10;100152.84;;;11.66;96.15
15382;BME280;7789;51.364;12.358;2023-01-05T08:55:15;100155.03;;;11.71;96.27
15382;BME280;7789;51.364;12.358;2023-01-05T09:00:18;100152.84;;;11.85;95.15
15382;BME280;7789;51.364;12.358;2023-01-05T09:05:22;100168.81;;;11.92;94.79
15382;BME280;7789;51.364;12.358;2023-01-05T09:10:27;100173.91;;;11.93;96.15
15382;BME280;7789;51.364;12.358;2023-01-05T09:15:30;100185.47;;;11.91;96.19
15382;BME280;7789;51.364;12.358;2023-01-05T09:20:33;100196.69;;;11.93;96.96
15382;BME280;7789;51.364;12.358;2023-01-05T09:25:42;100197.63;;;11.92;97.65
15382;BME280;7789;51.364;12.358;2023-01-05T09:30:45;100201.91;;;11.93;97.82
15382;BME280;7789;51.364;12.358;2023-01-05T09:35:52;100200.66;;;11.97;98.43
15382;BME280;7789;51.364;12.358;2023-01-05T09:41:02;100211.94;;;11.97;98.46
15382;BME280;7789;51.364;12.358;2023-01-05T09:46:10;100208.25;;;12.00;98.13
15382;BME280;7789;51.364;12.358;2023-01-05T09:51:15;100215.13;;;12.01;98.11
15382;BME280;7789;51.364;12.358;2023-01-05T09:56:26;100223.28;;;12.07;98.41
15382;BME280;7789;51.364;12.358;2023-01-05T10:01:51;100214.56;;;12.07;98.77
15382;BME280;7789;51.364;12.358;2023-01-05T10:07:00;100233.47;;;11.91;99.06
15382;BME280;7789;51.364;12.358;2023-01-05T10:12:15;100230.00;;;11.81;100.00
15382;BME280;7789;51.364;12.358;2023-01-05T10:17:38;100222.88;;;12.02;100.00
15382;BME280;7789;51.364;12.358;2023-01-05T10:22:53;100229.06;;;12.20;100.00
15382;BME280;7789;51.364;12.358;2023-01-05T10:28:06;100225.47;;;12.21;100.00
15382;BME280;7789;51.364;12.358;2023-01-05T10:33:15;100226.72;;;12.17;100.00
15382;BME280;7789;51.364;12.358;2023-01-05T10:38:48;100234.59;;;12.17;100.00
15382;BME280;7789;51.364;12.358;2023-01-05T10:49:36;100233.72;;;12.36;100.00
15382;BME280;7789;51.364;12.358;2023-01-05T10:54:43;100241.16;;;12.59;100.00
15382;BME280;7789;51.364;12.358;2023-01-05T10:59:56;100244.56;;;12.79;100.00
15382;BME280;7789;51.364;12.358;2023-01-05T11:05:03;100248.81;;;12.89;99.04
15382;BME280;7789;51.364;12.358;2023-01-05T11:10:19;100250.81;;;13.14;97.20
15382;BME280;7789;51.364;12.358;2023-01-05T11:15:24;100248.28;;;13.22;96.58
15382;BME280;7789;51.364;12.358;2023-01-05T11:20:29;100264.72;;;13.24;95.49
15382;BME280;7789;51.364;12.358;2023-01-05T11:25:35;100266.13;;;13.18;94.80
15382;BME280;7789;51.364;12.358;2023-01-05T11:30:55;100269.03;;;13.15;94.71
15382;BME280;7789;51.364;12.358;2023-01-05T11:36:01;100271.50;;;13.17;94.35
15382;BME280;7789;51.364;12.358;2023-01-05T11:41:10;100273.16;;;13.18;94.21
15382;BME280;7789;51.364;12.358;2023-01-05T11:46:16;100280.94;;;13.10;93.30
15382;BME280;7789;51.364;12.358;2023-01-05T11:51:32;100290.38;;;13.03;93.73
15382;BME280;7789;51.364;12.358;2023-01-05T11:56:36;100296.84;;;12.99;94.33
15382;BME280;7789;51.364;12.358;2023-01-05T12:01:54;100295.06;;;12.90;95.14
15382;BME280;7789;51.364;12.358;2023-01-05T12:07:13;100301.28;;;12.89;95.61
15382;BME280;7789;51.364;12.358;2023-01-05T12:12:39;100304.44;;;12.83;95.42
15382;BME280;7789;51.364;12.358;2023-01-05T12:17:56;100313.44;;;12.81;95.31
15382;BME280;7789;51.364;12.358;2023-01-05T12:23:19;100304.31;;;12.85;96.23
15382;BME280;7789;51.364;12.358;2023-01-05T12:28:54;100318.97;;;12.87;96.55
15382;BME280;7789;51.364;12.358;2023-01-05T12:40:11;100348.06;;;12.84;97.82
15382;BME280;7789;51.364;12.358;2023-01-05T12:45:48;100335.94;;;12.83;98.05
15382;BME280;7789;51.364;12.358;2023-01-05T12:51:00;100354.28;;;12.83;97.45
15382;BME280;7789;51.364;12.358;2023-01-05T12:56:15;100351.00;;;12.81;97.89
15382;BME280;7789;51.364;12.358;2023-01-05T13:01:24;100358.88;;;12.72;98.42
15382;BME280;7789;51.364;12.358;2023-01-05T13:06:35;100372.13;;;12.70;98.97
15382;BME280;7789;51.364;12.358;2023-01-05T13:11:47;100389.94;;;12.67;99.02
15382;BME280;7789;51.364;12.358;2023-01-05T13:16:54;100384.28;;;12.62;99.98
15382;BME280;7789;51.364;12.358;2023-01-05T13:22:04;100400.03;;;12.62;100.00
15382;BME280;7789;51.364;12.358;2023-01-05T13:27:10;100402.22;;;12.57;100.00
15382;BME280;7789;51.364;12.358;2023-01-05T13:32:37;100402.38;;;12.55;100.00
15382;BME280;7789;51.364;12.358;2023-01-05T13:38:18;100416.56;;;12.53;100.00
15382;BME280;7789;51.364;12.358;2023-01-05T13:43:57;100427.91;;;12.53;100.00
15382;BME280;7789;51.364;12.358;2023-01-05T13:49:16;100423.34;;;12.55;100.00
15382;BME280;7789;51.364;12.358;2023-01-05T13:54:36;100430.38;;;12.55;100.00
15382;BME280;7789;51.364;12.358;2023-01-05T14:00:03;100423.63;;;12.52;100.00
15382;BME280;7789;51.364;12.358;2023-01-05T14:05:15;100449.13;;;12.50;100.00
15382;BME280;7789;51.364;12.358;2023-01-05T14:10:27;100463.78;;;12.53;100.00
15382;BME280;7789;51.364;12.358;2023-01-05T14:15:41;100468.72;;;12.46;100.00
15382;BME280;7789;51.364;12.358;2023-01-05T14:20:46;100481.03;;;12.46;100.00
15382;BME280;7789;51.364;12.358;2023-01-05T14:25:55;100485.69;;;12.42;100.00
15382;BME280;7789;51.364;12.358;2023-01-05T14:31:34;100494.78;;;12.38;100.00
15382;BME280;7789;51.364;12.358;2023-01-05T14:36:40;100507.59;;;12.32;100.00
15382;BME280;7789;51.364;12.358;2023-01-05T14:42:00;100518.78;;;12.34;100.00
15382;BME280;7789;51.364;12.358;2023-01-05T14:47:04;100521.09;;;12.27;100.00
15382;BME280;7789;51.364;12.358;2023-01-05T14:52:14;100548.28;;;12.26;100.00
15382;BME280;7789;51.364;12.358;2023-01-05T14:57:35;100536.25;;;12.24;100.00
15382;BME280;7789;51.364;12.358;2023-01-05T15:02:50;100533.34;;;12.17;100.00
15382;BME280;7789;51.364;12.358;2023-01-05T15:08:06;100558.59;;;12.18;100.00
15382;BME280;7789;51.364;12.358;2023-01-05T15:13:28;100573.44;;;12.08;100.00
15382;BME280;7789;51.364;12.358;2023-01-05T15:18:53;100570.22;;;12.05;100.00
15382;BME280;7789;51.364;12.358;2023-01-05T15:24:41;100575.56;;;11.94;100.00
15382;BME280;7789;51.364;12.358;2023-01-05T15:30:02;100592.69;;;11.77;100.00
15382;BME280;7789;51.364;12.358;2023-01-05T15:35:15;100595.81;;;11.71;100.00
15382;BME280;7789;51.364;12.358;2023-01-05T15:40:28;100598.81;;;11.67;100.00
15382;BME280;7789;51.364;12.358;2023-01-05T15:45:35;100618.63;;;11.60;100.00
15382;BME280;7789;51.364;12.358;2023-01-05T15:50:45;100622.63;;;11.53;100.00
15382;BME280;7789;51.364;12.358;2023-01-05T15:55:49;100622.19;;;11.48;100.00
15382;BME280;7789;51.364;12.358;2023-01-05T16:01:07;100621.03;;;11.41;100.00
15382;BME280;7789;51.364;12.358;2023-01-05T16:06:15;100624.13;;;11.35;100.00
15382;BME280;7789;51.364;12.358;2023-01-05T16:11:24;100643.41;;;11.34;100.00
15382;BME280;7789;51.364;12.358;2023-01-05T16:16:34;100647.81;;;11.33;100.00
15382;BME280;7789;51.364;12.358;2023-01-05T16:21:55;100646.16;;;11.32;100.00
15382;BME280;7789;51.364;12.358;2023-01-05T16:27:04;100647.94;;;11.32;100.00
15382;BME280;7789;51.364;12.358;2023-01-05T16:32:28;100661.88;;;11.32;100.00
15382;BME280;7789;51.364;12.358;2023-01-05T16:37:32;100666.06;;;11.24;100.00
15382;BME280;7789;51.364;12.358;2023-01-05T16:42:44;100663.53;;;11.22;100.00
15382;BME280;7789;51.364;12.358;2023-01-05T16:47:50;100687.34;;;11.19;100.00
15382;BME280;7789;51.364;12.358;2023-01-05T16:52:56;100679.59;;;11.18;100.00
15382;BME280;7789;51.364;12.358;2023-01-05T16:58:01;100668.44;;;11.16;100.00
15382;BME280;7789;51.364;12.358;2023-01-05T17:03:30;100682.94;;;11.20;100.00
15382;BME280;7789;51.364;12.358;2023-01-05T17:08:34;100683.31;;;11.15;100.00
15382;BME280;7789;51.364;12.358;2023-01-05T17:13:40;100680.34;;;11.09;100.00
15382;BME280;7789;51.364;12.358;2023-01-05T17:18:45;100698.31;;;11.02;100.00
15382;BME280;7789;51.364;12.358;2023-01-05T17:23:52;100706.50;;;10.98;100.00
15382;BME280;7789;51.364;12.358;2023-01-05T17:28:58;100703.44;;;10.93;100.00
15382;BME280;7789;51.364;12.358;2023-01-05T17:34:03;100715.56;;;10.94;100.00
15382;BME280;7789;51.364;12.358;2023-01-05T17:39:06;100719.94;;;10.94;100.00
15382;BME280;7789;51.364;12.358;2023-01-05T17:44:10;100719.22;;;10.92;100.00
15382;BME280;7789;51.364;12.358;2023-01-05T17:49:16;100720.19;;;10.91;100.00
15382;BME280;7789;51.364;12.358;2023-01-05T17:54:20;100722.91;;;10.89;100.00
15382;BME280;7789;51.364;12.358;2023-01-05T17:59:23;100741.34;;;10.88;100.00
15382;BME280;7789;51.364;12.358;2023-01-05T18:04:30;100748.13;;;10.90;100.00
15382;BME280;7789;51.364;12.358;2023-01-05T18:09:33;100743.00;;;10.89;100.00
15382;BME280;7789;51.364;12.358;2023-01-05T18:14:38;100752.06;;;10.85;100.00
15382;BME280;7789;51.364;12.358;2023-01-05T18:19:46;100756.31;;;10.86;100.00
15382;BME280;7789;51.364;12.358;2023-01-05T18:24:49;100764.41;;;10.83;100.00
15382;BME280;7789;51.364;12.358;2023-01-05T18:29:54;100773.56;;;10.77;100.00
15382;BME280;7789;51.364;12.358;2023-01-05T18:34:59;100770.44;;;10.72;100.00
15382;BME280;7789;51.364;12.358;2023-01-05T18:40:12;100776.03;;;10.68;100.00
15382;BME280;7789;51.364;12.358;2023-01-05T18:45:16;100781.38;;;10.66;100.00
15382;BME280;7789;51.364;12.358;2023-01-05T18:50:38;100780.66;;;10.64;100.00
15382;BME280;7789;51.364;12.358;2023-01-05T18:55:43;100784.31;;;10.62;100.00
15382;BME280;7789;51.364;12.358;2023-01-05T19:00:46;100792.28;;;10.60;100.00
15382;BME280;7789;51.364;12.358;2023-01-05T19:05:50;100806.41;;;10.58;100.00
15382;BME280;7789;51.364;12.358;2023-01-05T19:10:54;100805.09;;;10.52;100.00
15382;BME280;7789;51.364;12.358;2023-01-05T19:15:59;100795.34;;;10.43;100.00
15382;BME280;7789;51.364;12.358;2023-01-05T19:21:04;100800.66;;;10.42;100.00
15382;BME280;7789;51.364;12.358;2023-01-05T19:26:08;100803.41;;;10.40;100.00
15382;BME280;7789;51.364;12.358;2023-01-05T19:31:12;100810.41;;;10.40;100.00
15382;BME280;7789;51.364;12.358;2023-01-05T19:36:19;100801.00;;;10.37;100.00
15382;BME280;7789;51.364;12.358;2023-01-05T19:41:22;100810.03;;;10.33;100.00
15382;BME280;7789;51.364;12.358;2023-01-05T19:46:27;100805.88;;;10.31;100.00
15382;BME280;7789;51.364;12.358;2023-01-05T19:51:32;100801.56;;;10.30;100.00
15382;BME280;7789;51.364;12.358;2023-01-05T19:56:36;100805.13;;;10.29;100.00
15382;BME280;7789;51.364;12.358;2023-01-05T20:01:39;100813.19;;;10.26;100.00
15382;BME280;7789;51.364;12.358;2023-01-05T20:06:44;100816.53;;;10.28;100.00
15382;BME280;7789;51.364;12.358;2023-01-05T20:11:49;100821.66;;;10.29;100.00
15382;BME280;7789;51.364;12.358;2023-01-05T20:17:03;100826.16;;;10.27;100.00
15382;BME280;7789;51.364;12.358;2023-01-05T20:22:10;100821.03;;;10.26;100.00
15382;BME280;7789;51.364;12.358;2023-01-05T20:27:15;100829.81;;;10.25;100.00
15382;BME280;7789;51.364;12.358;2023-01-05T20:32:21;100833.38;;;10.24;100.00
15382;BME280;7789;51.364;12.358;2023-01-05T20:37:26;100827.34;;;10.23;100.00
15382;BME280;7789;51.364;12.358;2023-01-05T20:42:30;100830.03;;;10.22;100.00
15382;BME280;7789;51.364;12.358;2023-01-05T20:47:33;100838.84;;;10.21;100.00
15382;BME280;7789;51.364;12.358;2023-01-05T20:52:49;100836.22;;;10.21;100.00
15382;BME280;7789;51.364;12.358;2023-01-05T20:57:52;100843.09;;;10.22;100.00
15382;BME280;7789;51.364;12.358;2023-01-05T21:02:55;100844.78;;;10.23;100.00
15382;BME280;7789;51.364;12.358;2023-01-05T21:08:00;100839.56;;;10.23;100.00
15382;BME280;7789;51.364;12.358;2023-01-05T21:13:03;100845.81;;;10.20;100.00
15382;BME280;7789;51.364;12.358;2023-01-05T21:18:27;100849.50;;;10.18;100.00
15382;BME280;7789;51.364;12.358;2023-01-05T21:23:31;100839.06;;;10.18;100.00
15382;BME280;7789;51.364;12.358;2023-01-05T21:28:36;100846.06;;;10.17;100.00
15382;BME280;7789;51.364;12.358;2023-01-05T21:33:40;100851.28;;;10.17;100.00
15382;BME280;7789;51.364;12.358;2023-01-05T21:38:48;100850.94;;;10.22;100.00
15382;BME280;7789;51.364;12.358;2023-01-05T21:44:04;100843.97;;;10.22;100.00
15382;BME280;7789;51.364;12.358;2023-01-05T21:49:10;100847.53;;;10.21;100.00
15382;BME280;7789;51.364;12.358;2023-01-05T21:54:19;100845.63;;;10.23;100.00
15382;BME280;7789;51.364;12.358;2023-01-05T21:59:41;100843.81;;;10.24;100.00
15382;BME280;7789;51.364;12.358;2023-01-05T22:04:51;100839.69;;;10.21;100.00
15382;BME280;7789;51.364;12.358;2023-01-05T22:09:59;100851.91;;;10.21;100.00
15382;BME280;7789;51.364;12.358;2023-01-05T22:15:07;100854.41;;;10.22;100.00
15382;BME280;7789;51.364;12.358;2023-01-05T22:20:18;100855.00;;;10.26;100.00
15382;BME280;7789;51.364;12.358;2023-01-05T22:25:40;100847.38;;;10.23;100.00
15382;BME280;7789;51.364;12.358;2023-01-05T22:30:45;100850.22;;;10.20;100.00
15382;BME280;7789;51.364;12.358;2023-01-05T22:35:53;100851.03;;;10.20;100.00
15382;BME280;7789;51.364;12.358;2023-01-05T22:41:00;100856.84;;;10.13;100.00
15382;BME280;7789;51.364;12.358;2023-01-05T22:46:07;100852.53;;;10.12;100.00
15382;BME280;7789;51.364;12.358;2023-01-05T22:51:19;100854.03;;;10.03;100.00
15382;BME280;7789;51.364;12.358;2023-01-05T22:56:28;100857.53;;;9.91;100.00
15382;BME280;7789;51.364;12.358;2023-01-05T23:01:36;100846.53;;;9.86;100.00
15382;BME280;7789;51.364;12.358;2023-01-05T23:06:45;100849.50;;;9.82;100.00
15382;BME280;7789;51.364;12.358;2023-01-05T23:12:05;100842.63;;;9.81;100.00
15382;BME280;7789;51.364;12.358;2023-01-05T23:17:20;100841.50;;;9.72;100.00
15382;BME280;7789;51.364;12.358;2023-01-05T23:22:37;100840.78;;;9.58;100.00
15382;BME280;7789;51.364;12.358;2023-01-05T23:28:09;100844.84;;;9.49;100.00
15382;BME280;7789;51.364;12.358;2023-01-05T23:33:24;100840.91;;;9.44;100.00
15382;BME280;7789;51.364;12.358;2023-01-05T23:38:32;100832.34;;;9.42;100.00
15382;BME280;7789;51.364;12.358;2023-01-05T23:43:40;100829.44;;;9.46;100.00
15382;BME280;7789;51.364;12.358;2023-01-05T23:48:50;100826.94;;;9.45;100.00
15382;BME280;7789;51.364;12.358;2023-01-05T23:53:56;100824.44;;;9.43;100.00
15382;BME280;7789;51.364;12.358;2023-01-05T23:59:04;100809.41;;;9.47;100.00
